Terminal Aerodrome Forecast
Issued by NWS

Home | Current Version | Previous Version | Text Only | Print | Product List | Glossary On
Versions: 1 2 3 4 5 6 7 8 9 10 11 12 13 14 15 16 17 18 19 20 21
000
FTUS41 KBGM 251100
TAFRME
TAF
KRME 251139Z 2512/2612 30012G22KT P6SM SCT025 BKN040
      TEMPO 2512/2515 BKN025
     FM251600 30010KT P6SM FEW025 BKN040
     FM252300 34005KT P6SM FEW020 SCT200
     FM260400 VRB03KT P6SM BKN180=

USA.gov is the U.S. government's official web portal to all federal, state and local government web resources and services.